createdAt,value
2018-04-12T00:00:38.996Z,13.2
2018-04-12T00:01:39.290Z,13.21
2018-04-12T00:02:39.572Z,13.21
2018-04-12T00:03:39.485Z,13.13
2018-04-12T00:04:39.788Z,13.17
2018-04-12T00:05:39.799Z,13.16
2018-04-12T00:06:40.178Z,13.03
2018-04-12T00:07:40.216Z,13.09
2018-04-12T00:08:40.404Z,13.13
2018-04-12T00:09:40.804Z,12.99
2018-04-12T00:10:40.845Z,13.02
2018-04-12T00:11:40.867Z,13.1
2018-04-12T00:12:41.274Z,13.03
2018-04-12T00:13:41.473Z,12.96
2018-04-12T00:14:41.453Z,12.96
2018-04-12T00:15:41.865Z,12.94
2018-04-12T00:16:41.729Z,12.96
2018-04-12T00:17:42.279Z,12.96
2018-04-12T00:18:42.306Z,12.99
2018-04-12T00:19:42.341Z,12.84
2018-04-12T00:20:42.378Z,12.81
2018-04-12T00:21:42.279Z,12.86
2018-04-12T00:22:42.720Z,12.76
2018-04-12T00:23:43.017Z,12.77
2018-04-12T00:24:42.909Z,12.66
2018-04-12T00:25:43.182Z,12.76
2018-04-12T00:26:42.945Z,12.71
2018-04-12T00:27:43.117Z,12.74
2018-04-12T00:28:43.526Z,12.76
2018-04-12T00:29:43.726Z,12.69
2018-04-12T00:30:43.967Z,12.76
2018-04-12T00:31:44.088Z,12.69
2018-04-12T00:32:44.503Z,12.65
2018-04-12T00:33:44.341Z,12.69
2018-04-12T00:34:44.784Z,12.71
2018-04-12T00:35:44.516Z,12.7
2018-04-12T00:36:44.809Z,12.78
2018-04-12T00:37:44.948Z,12.71
2018-04-12T00:38:44.754Z,12.66
2018-04-12T00:39:44.968Z,12.66
2018-04-12T00:40:45.627Z,12.73
2018-04-12T00:41:46.085Z,12.73
2018-04-12T00:42:46.240Z,12.69
2018-04-12T00:43:46.290Z,12.71
2018-04-12T00:44:46.670Z,12.71
2018-04-12T00:45:46.434Z,12.74
2018-04-12T00:46:47.102Z,12.74
2018-04-12T00:47:47.550Z,12.65
2018-04-12T00:48:47.029Z,12.62
2018-04-12T00:49:47.704Z,12.66
2018-04-12T00:50:47.571Z,12.66
2018-04-12T00:51:48.287Z,12.62
2018-04-12T00:52:48.460Z,12.69
2018-04-12T00:53:48.502Z,12.61
2018-04-12T00:54:48.621Z,12.63
2018-04-12T00:55:49.125Z,12.71
2018-04-12T00:56:49.189Z,12.63
2018-04-12T00:57:49.384Z,12.62
2018-04-12T00:58:49.414Z,12.59
2018-04-12T00:59:49.163Z,12.65
2018-04-12T01:00:49.467Z,12.63
2018-04-12T01:01:49.768Z,12.61
2018-04-12T01:02:49.632Z,12.61
2018-04-12T01:03:50.022Z,12.55
2018-04-12T01:04:49.722Z,12.56
2018-04-12T01:05:50.115Z,12.58
2018-04-12T01:06:49.956Z,12.63
2018-04-12T01:07:50.182Z,12.62
2018-04-12T01:08:50.337Z,12.58
2018-04-12T01:09:50.484Z,12.61
2018-04-12T01:10:51.257Z,12.63
2018-04-12T01:11:51.267Z,12.61
2018-04-12T01:12:51.635Z,12.7
2018-04-12T01:13:51.683Z,12.65
2018-04-12T01:14:51.447Z,12.58
2018-04-12T01:15:52.118Z,12.48
2018-04-12T01:16:52.128Z,12.52
2018-04-12T01:17:52.159Z,12.52
2018-04-12T01:18:52.539Z,12.56
2018-04-12T01:19:52.295Z,12.55
2018-04-12T01:20:52.713Z,12.55
2018-04-12T01:21:52.776Z,12.51
2018-04-12T01:22:52.490Z,12.61
2018-04-12T01:23:52.873Z,12.56
2018-04-12T01:24:52.990Z,12.58
2018-04-12T01:25:53.521Z,12.48
2018-04-12T01:26:53.681Z,12.51
2018-04-12T01:27:54.130Z,12.58
2018-04-12T01:28:54.131Z,12.58
2018-04-12T01:29:54.135Z,12.56
2018-04-12T01:30:54.204Z,12.59
2018-04-12T01:31:54.219Z,12.56
2018-04-12T01:32:54.056Z,12.53
2018-04-12T01:33:54.014Z,12.47
2018-04-12T01:34:54.144Z,12.53
2018-04-12T01:35:54.712Z,12.47
2018-04-12T01:36:54.839Z,12.44
2018-04-12T01:37:54.334Z,12.37
2018-04-12T01:38:54.896Z,12.37
2018-04-12T01:39:55.042Z,12.36
2018-04-12T01:40:55.351Z,12.29
2018-04-12T01:41:55.768Z,12.33
2018-04-12T01:42:55.811Z,12.36
2018-04-12T01:43:55.853Z,12.36
2018-04-12T01:44:55.847Z,12.33
2018-04-12T01:45:55.752Z,12.36
2018-04-12T01:46:55.867Z,12.36
2018-04-12T01:47:56.911Z,12.34
2018-04-12T01:48:55.965Z,12.26
2018-04-12T01:49:56.004Z,12.28
2018-04-12T01:50:55.779Z,12.33
2018-04-12T01:51:55.955Z,12.19
2018-04-12T01:52:56.424Z,12.2
2018-04-12T01:53:56.436Z,12.28
2018-04-12T01:54:56.468Z,12.31
2018-04-12T01:55:56.309Z,12.2
2018-04-12T01:56:56.499Z,12.19
2018-04-12T01:57:56.575Z,12.03
2018-04-12T01:58:57.010Z,12.11
2018-04-12T01:59:56.775Z,12.08
2018-04-12T02:00:57.756Z,12.1
2018-04-12T02:01:57.793Z,12.11
2018-04-12T02:02:57.835Z,12.05
2018-04-12T02:03:58.128Z,12.16
2018-04-12T02:04:58.302Z,12.15
2018-04-12T02:05:58.174Z,12.16
2018-04-12T02:06:58.902Z,12.22
2018-04-12T02:07:58.410Z,12.16
2018-04-12T02:08:58.957Z,12.13
2018-04-12T02:09:58.732Z,12.15
2018-04-12T02:10:58.575Z,12.07
2018-04-12T02:11:58.900Z,12.01
2018-04-12T02:12:59.387Z,12.03
2018-04-12T02:13:59.351Z,12.08
2018-04-12T02:14:59.107Z,12.05
2018-04-12T02:15:59.811Z,12.07
2018-04-12T02:17:00.210Z,12.03
2018-04-12T02:18:00.649Z,12.01
2018-04-12T02:19:00.356Z,11.89
2018-04-12T02:20:00.850Z,11.97
2018-04-12T02:21:00.413Z,11.94
2018-04-12T02:22:00.446Z,11.94
2018-04-12T02:23:00.847Z,11.89
2018-04-12T02:24:00.500Z,11.95
2018-04-12T02:25:00.840Z,11.91
2018-04-12T02:26:00.808Z,11.98
2018-04-12T02:27:01.152Z,11.98
2018-04-12T02:28:01.400Z,11.95
2018-04-12T02:29:01.513Z,11.94
2018-04-12T02:30:01.530Z,11.86
2018-04-12T02:31:01.702Z,11.82
2018-04-12T02:32:01.885Z,11.89
2018-04-12T02:33:02.166Z,11.88
2018-04-12T02:34:02.184Z,11.79
2018-04-12T02:35:02.492Z,11.84
2018-04-12T02:36:02.130Z,11.82
2018-04-12T02:37:02.243Z,11.85
2018-04-12T02:38:02.133Z,11.82
2018-04-12T02:39:02.235Z,11.86
2018-04-12T02:40:02.532Z,11.89
2018-04-12T02:41:02.557Z,11.81
2018-04-12T02:42:02.738Z,11.81
2018-04-12T02:43:02.644Z,11.79
2018-04-12T02:44:03.376Z,11.79
2018-04-12T02:45:03.340Z,11.85
2018-04-12T02:46:03.410Z,11.79
2018-04-12T02:47:03.134Z,11.86
2018-04-12T02:48:03.367Z,11.75
2018-04-12T02:49:03.575Z,11.82
2018-04-12T02:50:03.658Z,11.75
2018-04-12T02:51:04.324Z,11.7
2018-04-12T02:52:04.391Z,11.78
2018-04-12T02:53:04.277Z,11.64
2018-04-12T02:54:04.061Z,11.67
2018-04-12T02:55:04.627Z,11.76
2018-04-12T02:56:04.619Z,11.82
2018-04-12T02:57:04.666Z,11.7
2018-04-12T02:58:04.620Z,11.75
2018-04-12T02:59:04.662Z,11.63
2018-04-12T03:00:23.848Z,11.64
2018-04-12T03:01:04.578Z,11.73
2018-04-12T03:02:04.866Z,11.7
2018-04-12T03:03:05.037Z,11.64
2018-04-12T03:04:04.921Z,11.66
2018-04-12T03:05:05.390Z,11.63
2018-04-12T03:06:05.849Z,11.66
2018-04-12T03:07:05.597Z,11.6
2018-04-12T03:08:05.994Z,11.63
2018-04-12T03:09:06.464Z,11.6
2018-04-12T03:10:06.906Z,11.6
2018-04-12T03:11:07.039Z,11.63
2018-04-12T03:12:07.459Z,11.6
2018-04-12T03:13:08.624Z,11.59
2018-04-12T03:14:08.340Z,11.6
2018-04-12T03:15:07.767Z,11.66
2018-04-12T03:16:07.791Z,11.57
2018-04-12T03:17:08.016Z,11.48
2018-04-12T03:18:08.504Z,11.48
2018-04-12T03:19:08.517Z,11.48
2018-04-12T03:20:09.047Z,11.6
2018-04-12T03:21:09.408Z,11.59
2018-04-12T03:22:09.196Z,11.64
2018-04-12T03:23:09.547Z,11.63
2018-04-12T03:24:09.508Z,11.61
2018-04-12T03:25:09.497Z,11.57
2018-04-12T03:26:09.675Z,11.6
2018-04-12T03:27:09.936Z,11.57
2018-04-12T03:28:10.072Z,11.53
2018-04-12T03:29:10.386Z,11.48
2018-04-12T03:30:10.115Z,11.42
2018-04-12T03:31:09.936Z,11.43
2018-04-12T03:32:10.196Z,11.46
2018-04-12T03:33:10.632Z,11.45
2018-04-12T03:34:10.732Z,11.43
2018-04-12T03:35:10.741Z,11.46
2018-04-12T03:36:11.162Z,11.38
2018-04-12T03:37:11.029Z,11.34
2018-04-12T03:38:11.598Z,11.34
2018-04-12T03:39:11.662Z,11.42
2018-04-12T03:40:11.436Z,11.31
2018-04-12T03:41:11.204Z,11.3
2018-04-12T03:42:11.823Z,11.42
2018-04-12T03:43:12.125Z,11.35
2018-04-12T03:44:12.030Z,11.35
2018-04-12T03:45:12.077Z,11.34
2018-04-12T03:46:11.874Z,11.34
2018-04-12T03:47:11.782Z,11.33
2018-04-12T03:48:12.204Z,11.43
2018-04-12T03:49:12.600Z,11.39
2018-04-12T03:50:12.745Z,11.34
2018-04-12T03:51:13.459Z,11.39
2018-04-12T03:52:13.825Z,11.21
2018-04-12T03:53:13.970Z,11.24
2018-04-12T03:54:14.094Z,11.28
2018-04-12T03:55:14.709Z,11.27
2018-04-12T03:56:14.722Z,11.26
2018-04-12T03:57:14.859Z,11.16
2018-04-12T03:58:14.766Z,11.21
2018-04-12T03:59:15.530Z,11.24
2018-04-12T04:00:18.612Z,11.24
2018-04-12T04:01:18.988Z,11.18
2018-04-12T04:02:18.767Z,11.28
2018-04-12T04:03:19.429Z,11.26
2018-04-12T04:04:20.247Z,11.24
2018-04-12T04:05:19.702Z,11.28
2018-04-12T04:06:18.956Z,11.24
2018-04-12T04:07:19.959Z,11.21
2018-04-12T04:08:19.567Z,11.21
2018-04-12T04:09:19.991Z,11.15
2018-04-12T04:10:19.714Z,11.28
2018-04-12T04:11:19.742Z,11.2
2018-04-12T04:12:19.881Z,11.2
2018-04-12T04:13:20.032Z,11.21
2018-04-12T04:14:20.322Z,11.13
2018-04-12T04:15:20.045Z,11.16
2018-04-12T04:16:20.569Z,11.13
2018-04-12T04:17:20.677Z,11.2
2018-04-12T04:18:20.257Z,11.26
2018-04-12T04:19:20.338Z,11.18
2018-04-12T04:20:20.567Z,11.16
2018-04-12T04:21:20.597Z,11.2
2018-04-12T04:22:20.712Z,11.2
2018-04-12T04:23:21.383Z,11.13
2018-04-12T04:24:21.496Z,11.15
2018-04-12T04:25:21.868Z,11.16
2018-04-12T04:26:22.075Z,11.13
2018-04-12T04:27:21.925Z,11.13
2018-04-12T04:28:21.692Z,11.21
2018-04-12T04:29:21.826Z,11.27
2018-04-12T04:30:21.856Z,11.31
2018-04-12T04:31:22.728Z,11.31
2018-04-12T04:32:22.912Z,11.23
2018-04-12T04:33:22.688Z,11.26
2018-04-12T04:34:22.972Z,11.28
2018-04-12T04:35:22.574Z,11.33
2018-04-12T04:36:23.166Z,11.35
2018-04-12T04:37:23.190Z,11.39
2018-04-12T04:38:23.263Z,11.33
2018-04-12T04:39:23.275Z,11.34
2018-04-12T04:40:23.514Z,11.27
2018-04-12T04:41:23.159Z,11.31
2018-04-12T04:42:23.928Z,11.34
2018-04-12T04:43:23.708Z,11.35
2018-04-12T04:44:24.375Z,11.38
2018-04-12T04:45:24.546Z,11.35
2018-04-12T04:46:24.330Z,11.45
2018-04-12T04:47:24.998Z,11.35
2018-04-12T04:48:25.470Z,11.39
2018-04-12T04:49:25.231Z,11.41
2018-04-12T04:50:26.013Z,11.31
2018-04-12T04:51:25.813Z,11.33
2018-04-12T04:52:25.842Z,11.35
2018-04-12T04:53:25.872Z,11.43
2018-04-12T04:54:26.015Z,11.45
2018-04-12T04:55:25.794Z,11.42
2018-04-12T04:56:26.500Z,11.48
2018-04-12T04:57:26.525Z,11.53
2018-04-12T04:58:26.563Z,11.53
2018-04-12T04:59:26.055Z,11.42
2018-04-12T05:00:26.617Z,11.61
2018-04-12T05:01:26.728Z,11.63
2018-04-12T05:02:26.685Z,11.63
2018-04-12T05:03:26.976Z,11.7
2018-04-12T05:04:26.976Z,11.73
2018-04-12T05:05:26.986Z,11.71
2018-04-12T05:06:27.003Z,11.76
2018-04-12T05:07:26.862Z,11.79
2018-04-12T05:08:27.129Z,11.91
2018-04-12T05:09:27.584Z,11.86
2018-04-12T05:10:27.512Z,11.73
2018-04-12T05:11:28.095Z,11.84
2018-04-12T05:12:27.790Z,11.97
2018-04-12T05:13:28.507Z,11.89
2018-04-12T05:14:27.038Z,11.86
2018-04-12T05:15:27.358Z,11.91
2018-04-12T05:16:27.555Z,11.88
2018-04-12T05:17:28.079Z,11.89
2018-04-12T05:18:27.737Z,11.95
2018-04-12T05:19:27.911Z,12.03
2018-04-12T05:20:28.348Z,12.01
2018-04-12T05:21:28.299Z,12.04
2018-04-12T05:22:28.969Z,12.03
2018-04-12T05:23:29.047Z,12.23
2018-04-12T05:24:29.793Z,12.36
2018-04-12T05:25:29.218Z,12.31
2018-04-12T05:26:29.537Z,12.34
2018-04-12T05:27:29.553Z,12.26
2018-04-12T05:28:29.441Z,12.29
2018-04-12T05:29:29.695Z,12.36
2018-04-12T05:30:30.014Z,12.34
2018-04-12T05:31:29.781Z,12.36
2018-04-12T05:32:30.160Z,12.43
2018-04-12T05:33:29.901Z,12.36
2018-04-12T05:34:29.925Z,12.48
2018-04-12T05:35:30.123Z,12.47
2018-04-12T05:36:30.335Z,12.53
2018-04-12T05:37:30.580Z,12.65
2018-04-12T05:38:30.324Z,12.78
2018-04-12T05:39:30.609Z,13.01
2018-04-12T05:40:30.611Z,13.31
2018-04-12T05:41:30.231Z,13.47
2018-04-12T05:42:30.426Z,13.55
2018-04-12T05:43:30.730Z,13.7
2018-04-12T05:44:31.144Z,13.9
2018-04-12T05:45:31.192Z,14.12
2018-04-12T05:46:31.024Z,14.38
2018-04-12T05:47:30.988Z,14.44
2018-04-12T05:48:30.756Z,14.49
2018-04-12T05:49:30.766Z,14.74
2018-04-12T05:50:31.465Z,14.64
2018-04-12T05:51:31.281Z,14.61
2018-04-12T05:52:31.035Z,14.74
2018-04-12T05:53:31.303Z,14.83
2018-04-12T05:54:31.484Z,14.75
2018-04-12T05:55:31.774Z,14.82
2018-04-12T05:56:31.828Z,14.79
2018-04-12T05:57:32.228Z,14.8
2018-04-12T05:58:32.257Z,15.05
2018-04-12T05:59:32.041Z,15.3
2018-04-12T06:00:32.706Z,15.41
2018-04-12T06:01:32.933Z,15.71
2018-04-12T06:02:33.323Z,16.13
2018-04-12T06:03:33.227Z,16.47
2018-04-12T06:04:33.253Z,16.7
2018-04-12T06:05:33.096Z,16.77
2018-04-12T06:06:33.723Z,16.91
2018-04-12T06:07:33.755Z,17.3
2018-04-12T06:08:33.520Z,16.88
2018-04-12T06:09:33.649Z,16.95
2018-04-12T06:10:33.951Z,17.17
2018-04-12T06:11:33.978Z,16.95
2018-04-12T06:12:34.025Z,17.21
2018-04-12T06:13:33.813Z,17.2
2018-04-12T06:14:33.806Z,17.38
2018-04-12T06:15:34.264Z,17.35
2018-04-12T06:16:34.736Z,17.69
2018-04-12T06:17:34.728Z,17.77
2018-04-12T06:18:34.910Z,17.55
2018-04-12T06:19:35.192Z,17.45
2018-04-12T06:20:35.045Z,17.4
2018-04-12T06:21:35.223Z,17.46
2018-04-12T06:22:35.612Z,17.55
2018-04-12T06:23:35.992Z,17.46
2018-04-12T06:24:36.143Z,17.42
2018-04-12T06:25:36.575Z,17.52
2018-04-12T06:26:37.014Z,17.52
2018-04-12T06:27:37.142Z,17.24
2018-04-12T06:28:37.645Z,17.17
2018-04-12T06:29:37.675Z,17.03
2018-04-12T06:30:38.103Z,16.87
2018-04-12T06:31:38.272Z,16.76
2018-04-12T06:32:38.084Z,16.69
2018-04-12T06:33:38.050Z,16.59
2018-04-12T06:34:38.748Z,16.45
2018-04-12T06:35:38.789Z,16.42
2018-04-12T06:36:38.797Z,16.18
2018-04-12T06:37:38.960Z,16.07
2018-04-12T06:38:39.653Z,15.84
2018-04-12T06:39:39.483Z,15.89
2018-04-12T06:40:40.139Z,15.71
2018-04-12T06:41:40.153Z,15.83
2018-04-12T06:42:40.194Z,15.73
2018-04-12T06:43:40.228Z,15.56
2018-04-12T06:44:40.698Z,15.41
2018-04-12T06:45:40.684Z,15.44
2018-04-12T06:46:40.749Z,15.49
2018-04-12T06:47:41.183Z,15.43
2018-04-12T06:48:41.241Z,15.58
2018-04-12T06:49:41.246Z,15.49
2018-04-12T06:50:41.381Z,15.35
2018-04-12T06:51:41.812Z,15.27
2018-04-12T06:52:41.824Z,15.3
2018-04-12T06:53:41.748Z,15.22
2018-04-12T06:54:41.786Z,15.15
2018-04-12T06:55:42.212Z,15.1
2018-04-12T06:56:42.285Z,15.08
2018-04-12T06:57:42.394Z,14.9
2018-04-12T06:58:42.742Z,14.83
2018-04-12T06:59:42.436Z,14.7
2018-04-12T07:00:42.837Z,14.6
2018-04-12T07:01:42.876Z,14.57
2018-04-12T07:02:43.321Z,14.57
2018-04-12T07:03:43.451Z,14.61
2018-04-12T07:04:43.901Z,14.45
2018-04-12T07:05:43.909Z,14.46
2018-04-12T07:06:43.921Z,14.41
2018-04-12T07:07:43.807Z,14.36
2018-04-12T07:08:44.151Z,14.26
2018-04-12T07:09:44.409Z,14.26
2018-04-12T07:10:44.437Z,14.28
2018-04-12T07:11:44.053Z,14.36
2018-04-12T07:12:44.377Z,14.23
2018-04-12T07:13:44.907Z,14.23
2018-04-12T07:14:44.898Z,14.21
2018-04-12T07:15:45.140Z,14.2
2018-04-12T07:16:45.052Z,14.26
2018-04-12T07:17:45.726Z,14.31
2018-04-12T07:18:45.779Z,14.3
2018-04-12T07:19:45.786Z,14.36
2018-04-12T07:20:46.431Z,14.44
2018-04-12T07:21:46.107Z,14.56
2018-04-12T07:22:46.426Z,14.67
2018-04-12T07:23:45.890Z,14.74
2018-04-12T07:24:46.688Z,14.66
2018-04-12T07:25:46.387Z,14.82
2018-04-12T07:26:46.579Z,14.77
2018-04-12T07:27:46.641Z,14.79
2018-04-12T07:28:46.616Z,14.87
2018-04-12T07:29:46.718Z,15.08
2018-04-12T07:30:47.137Z,15.27
2018-04-12T07:31:47.183Z,15.58
2018-04-12T07:32:47.204Z,15.71
2018-04-12T07:33:47.242Z,15.98
2018-04-12T07:34:47.096Z,16.36
2018-04-12T07:35:47.469Z,16.77
2018-04-12T07:36:47.341Z,16.91
2018-04-12T07:37:47.536Z,16.99
2018-04-12T07:38:47.949Z,17.28
2018-04-12T07:39:47.871Z,17.74
2018-04-12T07:40:47.876Z,17.62
2018-04-12T07:41:48.150Z,17.62
2018-04-12T07:42:48.471Z,17.6
2018-04-12T07:43:49.097Z,18.24
2018-04-12T07:44:48.967Z,18.68
2018-04-12T07:45:48.715Z,18.96
2018-04-12T07:46:48.891Z,19.61
2018-04-12T07:47:49.165Z,20.02
2018-04-12T07:48:49.542Z,20.08
2018-04-12T07:49:49.415Z,19.53
2018-04-12T07:50:49.922Z,19.1
2018-04-12T07:51:50.342Z,18.89
2018-04-12T07:52:50.044Z,18.54
2018-04-12T07:53:50.103Z,18.19
2018-04-12T07:54:50.586Z,17.77
2018-04-12T07:55:50.739Z,17.3
2018-04-12T07:56:51.027Z,17.22
2018-04-12T07:57:51.177Z,17.25
2018-04-12T07:58:51.303Z,17.6
2018-04-12T07:59:51.412Z,18.35
2018-04-12T08:00:52.011Z,18.99
2018-04-12T08:01:52.036Z,19.86
2018-04-12T08:02:51.920Z,20.98
2018-04-12T08:03:52.191Z,21.4
2018-04-12T08:04:51.856Z,21.43
2018-04-12T08:05:52.704Z,21.21
2018-04-12T08:06:53.439Z,21.09
2018-04-12T08:07:52.576Z,21.08
2018-04-12T08:08:52.344Z,20.79
2018-04-12T08:09:52.435Z,20.67
2018-04-12T08:10:52.726Z,20.44
2018-04-12T08:11:53.315Z,20.41
2018-04-12T08:12:53.620Z,20.63
2018-04-12T08:13:53.243Z,20.71
2018-04-12T08:14:54.003Z,20.41
2018-04-12T08:15:53.447Z,20.38
2018-04-12T08:16:53.866Z,20.41
2018-04-12T08:17:54.272Z,20.37
2018-04-12T08:18:54.618Z,20.04
2018-04-12T08:19:54.369Z,20.01
2018-04-12T08:20:54.783Z,19.71
2018-04-12T08:21:54.925Z,19.34
2018-04-12T08:22:54.967Z,18.89
2018-04-12T08:23:55.552Z,18.69
2018-04-12T08:24:55.609Z,18.59
2018-04-12T08:25:55.145Z,18.24
2018-04-12T08:26:55.100Z,18.03
2018-04-12T08:27:55.129Z,17.96
2018-04-12T08:28:55.740Z,18.19
2018-04-12T08:29:55.190Z,18.44
2018-04-12T08:30:55.230Z,18.86
2018-04-12T08:31:55.262Z,19.05
2018-04-12T08:32:55.295Z,18.93
2018-04-12T08:33:55.439Z,18.82
2018-04-12T08:34:55.821Z,18.91
2018-04-12T08:35:55.122Z,18.71
2018-04-12T08:36:55.711Z,18.53
2018-04-12T08:37:55.466Z,18.54
2018-04-12T08:38:55.536Z,18.66
2018-04-12T08:39:55.839Z,18.78
2018-04-12T08:40:55.349Z,18.66
2018-04-12T08:41:56.033Z,18.69
2018-04-12T08:42:56.746Z,18.89
2018-04-12T08:43:56.027Z,18.97
2018-04-12T08:44:56.481Z,18.99
2018-04-12T08:45:56.958Z,18.99
2018-04-12T08:46:57.172Z,19.12
2018-04-12T08:47:56.897Z,19.3
2018-04-12T08:48:56.780Z,19.95
2018-04-12T08:49:56.678Z,20.63
2018-04-12T08:50:56.441Z,20.76
2018-04-12T08:51:56.850Z,20.67
2018-04-12T08:52:56.730Z,20.35
2018-04-12T08:53:57.346Z,19.87
2018-04-12T08:54:57.789Z,19.75
2018-04-12T08:55:58.118Z,19.7
2018-04-12T08:56:58.071Z,19.63
2018-04-12T08:57:59.373Z,19.34
2018-04-12T08:58:59.063Z,19.5
2018-04-12T08:59:58.974Z,19.9
2018-04-12T09:00:58.621Z,20.48
2018-04-12T09:01:58.677Z,21.3
2018-04-12T09:02:59.179Z,22.04
2018-04-12T09:03:58.688Z,22.57
2018-04-12T09:04:58.537Z,22.84
2018-04-12T09:05:58.822Z,23
2018-04-12T09:06:58.798Z,22.89
2018-04-12T09:07:59.213Z,22.39
2018-04-12T09:08:59.228Z,21.89
2018-04-12T09:09:59.251Z,21.27
2018-04-12T09:10:59.266Z,20.54
2018-04-12T09:11:59.417Z,20.27
2018-04-12T09:12:59.142Z,20.71
2018-04-12T09:13:59.539Z,21.04
2018-04-12T09:14:59.211Z,21.53
2018-04-12T09:15:59.459Z,22.31
2018-04-12T09:16:59.671Z,23
2018-04-12T09:18:00.106Z,23.96
2018-04-12T09:18:59.950Z,24.61
2018-04-12T09:20:00.364Z,25.09
2018-04-12T09:21:00.024Z,25.76
2018-04-12T09:22:00.465Z,25.84
2018-04-12T09:23:00.640Z,25.75
2018-04-12T09:24:00.701Z,25.47
2018-04-12T09:25:01.100Z,25.64
2018-04-12T09:26:01.102Z,24.85
2018-04-12T09:27:01.068Z,24.03
2018-04-12T09:28:01.244Z,23.44
2018-04-12T09:29:02.510Z,23.66
2018-04-12T09:30:02.114Z,23.79
2018-04-12T09:31:01.876Z,23.64
2018-04-12T09:32:02.755Z,23.26
2018-04-12T09:33:02.358Z,23.26
2018-04-12T09:34:02.364Z,23.57
2018-04-12T09:35:01.880Z,23.47
2018-04-12T09:36:02.178Z,22.91
2018-04-12T09:37:02.238Z,22.14
2018-04-12T09:38:02.189Z,21.56
2018-04-12T09:39:02.885Z,21.52
2018-04-12T09:40:03.167Z,21.59
2018-04-12T09:41:03.146Z,21.55
2018-04-12T09:42:02.576Z,21.68
2018-04-12T09:43:02.987Z,22.12
2018-04-12T09:44:03.016Z,22.57
2018-04-12T09:45:03.427Z,22.99
2018-04-12T09:46:03.237Z,23.15
2018-04-12T09:47:03.729Z,22.82
2018-04-12T09:48:03.749Z,22.42
2018-04-12T09:49:03.586Z,22.26
2018-04-12T09:50:03.500Z,21.97
2018-04-12T09:51:03.594Z,21.66
2018-04-12T09:52:04.374Z,21.62
2018-04-12T09:53:04.404Z,21.66
2018-04-12T09:54:04.064Z,21.77
2018-04-12T09:55:04.849Z,21.92
2018-04-12T09:56:04.588Z,21.99
2018-04-12T09:57:05.049Z,21.92
2018-04-12T09:58:05.524Z,21.59
2018-04-12T09:59:05.484Z,21.37
